createdAt,value
2022-12-08T00:01:12.522Z,22.13
2022-12-08T00:03:40.280Z,22.15
2022-12-08T00:06:32.162Z,22.14
2022-12-08T00:09:19.454Z,22.13
2022-12-08T00:11:46.524Z,22.15
2022-12-08T00:14:13.544Z,22.16
2022-12-08T00:16:40.711Z,22.17
2022-12-08T00:19:07.778Z,22.19
2022-12-08T00:21:34.824Z,22.17
2022-12-08T00:24:02.048Z,22.14
2022-12-08T00:26:29.150Z,22.10
2022-12-08T00:28:56.172Z,22.10
2022-12-08T00:31:23.729Z,22.06
2022-12-08T00:33:50.857Z,22.03
2022-12-08T00:36:17.977Z,21.99
2022-12-08T00:38:45.511Z,21.98
2022-12-08T00:41:18.227Z,21.97
2022-12-08T00:43:45.468Z,21.95
2022-12-08T00:46:12.691Z,21.91
2022-12-08T00:48:39.780Z,21.87
2022-12-08T00:51:06.931Z,21.87
2022-12-08T00:53:33.971Z,21.89
2022-12-08T00:56:01.105Z,21.91
2022-12-08T00:58:28.230Z,21.94
2022-12-08T01:00:55.335Z,21.94
2022-12-08T01:03:22.455Z,21.89
2022-12-08T01:05:49.619Z,21.86
2022-12-08T01:08:16.747Z,21.87
2022-12-08T01:10:43.831Z,21.85
2022-12-08T01:13:11.685Z,21.83
2022-12-08T01:15:38.734Z,21.80
2022-12-08T01:18:05.864Z,21.76
2022-12-08T01:20:32.953Z,21.76
2022-12-08T01:22:59.983Z,21.76
2022-12-08T01:25:27.035Z,21.74
2022-12-08T01:27:54.245Z,21.70
2022-12-08T01:30:22.216Z,21.69
2022-12-08T01:32:49.285Z,21.70
2022-12-08T01:35:16.526Z,21.68
2022-12-08T01:37:43.637Z,21.66
2022-12-08T01:40:10.990Z,21.66
2022-12-08T01:42:38.751Z,21.72
2022-12-08T01:45:13.841Z,21.70
2022-12-08T01:47:48.615Z,21.67
2022-12-08T01:50:18.884Z,21.65
2022-12-08T01:52:58.049Z,21.64
2022-12-08T01:55:38.690Z,21.64
2022-12-08T01:58:17.283Z,21.63
2022-12-08T02:00:44.847Z,21.67
2022-12-08T02:03:18.880Z,21.68
2022-12-08T02:05:47.378Z,21.73
2022-12-08T02:08:15.020Z,21.76
2022-12-08T02:10:43.516Z,21.81
2022-12-08T02:13:15.179Z,21.83
2022-12-08T02:15:49.488Z,21.79
2022-12-08T02:18:24.849Z,21.76
2022-12-08T02:21:01.869Z,21.76
2022-12-08T02:23:35.189Z,21.74
2022-12-08T02:26:35.989Z,21.73
2022-12-08T02:29:26.301Z,21.71
2022-12-08T02:32:08.076Z,21.74
2022-12-08T02:34:48.921Z,21.74
2022-12-08T02:37:50.582Z,21.72
2022-12-08T02:40:35.149Z,21.67
2022-12-08T02:43:25.382Z,21.63
2022-12-08T02:45:57.376Z,21.62
2022-12-08T02:48:28.157Z,21.58
2022-12-08T02:50:55.249Z,21.55
2022-12-08T02:53:22.452Z,21.52
2022-12-08T02:56:12.835Z,21.51
2022-12-08T02:59:01.595Z,21.50
2022-12-08T03:01:57.826Z,21.51
2022-12-08T03:04:46.743Z,21.48
2022-12-08T03:07:30.999Z,21.46
2022-12-08T03:10:10.122Z,21.44
2022-12-08T03:12:50.841Z,21.44
2022-12-08T03:15:20.785Z,21.42
2022-12-08T03:17:53.822Z,21.42
2022-12-08T03:20:24.660Z,21.42
2022-12-08T03:22:55.311Z,21.43
2022-12-08T03:25:24.690Z,21.41
2022-12-08T03:27:52.509Z,21.39
2022-12-08T03:30:20.014Z,21.36
2022-12-08T03:33:05.286Z,21.31
2022-12-08T03:35:36.073Z,21.29
2022-12-08T03:38:12.121Z,21.27
2022-12-08T03:40:40.221Z,21.25
2022-12-08T03:43:07.805Z,21.23
2022-12-08T03:45:35.384Z,21.17
2022-12-08T03:48:02.821Z,21.16
2022-12-08T03:50:29.902Z,21.16
2022-12-08T03:52:57.019Z,21.16
2022-12-08T03:55:24.130Z,21.16
2022-12-08T03:57:51.200Z,21.16
2022-12-08T04:00:18.450Z,21.17
2022-12-08T04:02:45.775Z,21.17
2022-12-08T04:05:12.845Z,21.18
2022-12-08T04:07:40.019Z,21.17
2022-12-08T04:10:07.875Z,21.16
2022-12-08T04:12:35.039Z,21.16
2022-12-08T04:15:02.353Z,21.17
2022-12-08T04:17:29.428Z,21.19
2022-12-08T04:19:56.539Z,21.23
2022-12-08T04:22:23.734Z,21.26
2022-12-08T04:24:50.989Z,21.30
2022-12-08T04:27:18.056Z,21.34
2022-12-08T04:29:45.221Z,21.41
2022-12-08T04:32:12.334Z,21.42
2022-12-08T04:34:39.392Z,21.42
2022-12-08T04:37:06.465Z,21.45
2022-12-08T04:39:33.645Z,21.49
2022-12-08T04:42:00.688Z,21.53
2022-12-08T04:44:27.683Z,21.55
2022-12-08T04:46:55.266Z,21.52
2022-12-08T04:49:22.378Z,21.42
2022-12-08T04:51:49.613Z,21.34
2022-12-08T04:54:16.753Z,21.31
2022-12-08T04:56:43.831Z,21.29
2022-12-08T04:59:10.859Z,21.30
2022-12-08T05:01:38.098Z,21.30
2022-12-08T05:04:05.263Z,21.29
2022-12-08T05:06:32.321Z,21.31
2022-12-08T05:08:59.433Z,21.34
2022-12-08T05:11:26.543Z,21.38
2022-12-08T05:13:53.566Z,21.42
2022-12-08T05:16:20.808Z,21.42
2022-12-08T05:18:47.921Z,21.41
2022-12-08T05:21:15.057Z,21.44
2022-12-08T05:23:42.131Z,21.46
2022-12-08T05:26:09.283Z,21.47
2022-12-08T05:28:44.088Z,21.45
2022-12-08T05:31:13.436Z,21.45
2022-12-08T05:33:40.959Z,21.47
2022-12-08T05:36:09.095Z,21.48
2022-12-08T05:38:36.729Z,21.49
2022-12-08T05:41:04.214Z,21.49
2022-12-08T05:43:31.248Z,21.49
2022-12-08T05:45:58.822Z,21.51
2022-12-08T05:48:26.214Z,21.48
2022-12-08T05:50:53.628Z,21.47
2022-12-08T05:53:21.463Z,21.46
2022-12-08T05:55:48.761Z,21.47
2022-12-08T05:58:20.456Z,21.48
2022-12-08T06:00:48.265Z,21.47
2022-12-08T06:03:17.343Z,21.48
2022-12-08T06:05:45.926Z,21.47
2022-12-08T06:08:13.798Z,21.44
2022-12-08T06:10:43.141Z,21.43
2022-12-08T06:13:10.803Z,21.40
2022-12-08T06:15:39.098Z,21.40
2022-12-08T06:18:07.299Z,21.38
2022-12-08T06:20:34.626Z,21.37
2022-12-08T06:23:02.247Z,21.35
2022-12-08T06:25:29.525Z,21.32
2022-12-08T06:27:56.506Z,21.28
2022-12-08T06:30:23.734Z,21.25
2022-12-08T06:32:50.897Z,21.25
2022-12-08T06:35:18.111Z,21.23
2022-12-08T06:37:45.155Z,21.28
2022-12-08T06:40:12.715Z,21.34
2022-12-08T06:42:46.892Z,21.41
2022-12-08T06:45:16.412Z,21.44
2022-12-08T06:47:44.678Z,21.44
2022-12-08T06:50:13.026Z,21.46
2022-12-08T06:52:53.008Z,21.49
2022-12-08T06:55:57.300Z,21.50
2022-12-08T06:58:14.319Z,21.48
2022-12-08T07:00:43.007Z,21.47
2022-12-08T07:03:12.121Z,21.49
2022-12-08T07:05:39.820Z,21.50
2022-12-08T07:08:08.909Z,21.50
2022-12-08T07:10:36.334Z,21.51
2022-12-08T07:13:04.067Z,21.54
2022-12-08T07:15:31.273Z,21.52
2022-12-08T07:18:00.316Z,21.48
2022-12-08T07:20:27.981Z,21.46
2022-12-08T07:22:55.237Z,21.44
2022-12-08T07:25:22.403Z,21.41
2022-12-08T07:27:51.786Z,21.40
2022-12-08T07:30:19.064Z,21.42
2022-12-08T07:32:46.305Z,21.41
2022-12-08T07:35:13.467Z,21.41
2022-12-08T07:37:40.821Z,21.42
2022-12-08T07:40:09.297Z,21.40
2022-12-08T07:42:36.467Z,21.36
2022-12-08T07:45:03.815Z,21.33
2022-12-08T07:47:31.132Z,21.32
2022-12-08T07:49:58.234Z,21.31
2022-12-08T07:52:25.371Z,21.28
2022-12-08T07:54:52.456Z,21.28
2022-12-08T07:57:19.581Z,21.27
2022-12-08T07:59:46.595Z,21.27
2022-12-08T08:02:24.810Z,21.28
2022-12-08T08:04:53.591Z,21.28
2022-12-08T08:07:20.826Z,21.32
2022-12-08T08:09:47.894Z,21.37
2022-12-08T08:12:30.658Z,21.43
2022-12-08T08:14:59.489Z,21.47
2022-12-08T08:17:26.953Z,21.52
2022-12-08T08:19:54.106Z,21.51
2022-12-08T08:22:21.216Z,21.50
2022-12-08T08:24:48.587Z,21.51
2022-12-08T08:27:15.868Z,21.54
2022-12-08T08:29:42.952Z,21.53
2022-12-08T08:32:10.265Z,21.54
2022-12-08T08:34:37.385Z,21.59
2022-12-08T08:37:04.604Z,21.61
2022-12-08T08:39:32.270Z,21.59
2022-12-08T08:41:59.362Z,21.63
2022-12-08T08:44:26.464Z,21.68
2022-12-08T08:46:53.861Z,21.70
2022-12-08T08:49:21.581Z,21.73
2022-12-08T08:51:48.758Z,21.78
2022-12-08T08:54:16.210Z,21.77
2022-12-08T08:56:43.230Z,21.76
2022-12-08T08:59:11.065Z,21.75
2022-12-08T09:01:38.173Z,21.76
2022-12-08T09:04:05.303Z,21.76
2022-12-08T09:06:32.813Z,21.76
2022-12-08T09:09:00.203Z,21.83
2022-12-08T09:11:27.212Z,21.91
2022-12-08T09:13:54.870Z,21.98
2022-12-08T09:16:23.047Z,22.03
2022-12-08T09:18:50.818Z,22.12
2022-12-08T09:21:23.221Z,22.19
2022-12-08T09:23:51.692Z,22.20
2022-12-08T09:26:22.683Z,22.16
2022-12-08T09:28:51.328Z,22.14
2022-12-08T09:31:20.387Z,22.17
2022-12-08T09:33:48.431Z,22.26
2022-12-08T09:36:15.436Z,22.32
2022-12-08T09:38:42.534Z,22.41
2022-12-08T09:41:43.300Z,22.47
2022-12-08T09:44:31.883Z,22.52
2022-12-08T09:47:00.895Z,22.58
2022-12-08T09:49:47.365Z,22.69
2022-12-08T09:52:41.136Z,22.75
2022-12-08T09:55:25.568Z,22.81
2022-12-08T09:58:01.641Z,22.86
2022-12-08T10:00:28.832Z,22.88
2022-12-08T10:02:57.301Z,22.91
2022-12-08T10:05:26.261Z,22.93
2022-12-08T10:08:20.463Z,23.03
2022-12-08T10:11:00.309Z,23.11
2022-12-08T10:13:35.100Z,23.14
2022-12-08T10:16:30.181Z,23.11
2022-12-08T10:19:11.764Z,23.07
2022-12-08T10:21:40.835Z,23.05
2022-12-08T10:24:23.003Z,23.06
2022-12-08T10:26:50.402Z,23.08
2022-12-08T10:29:17.672Z,23.09
2022-12-08T10:31:45.145Z,23.10
2022-12-08T10:34:24.479Z,23.05
2022-12-08T10:36:54.667Z,23.08
2022-12-08T10:39:36.439Z,23.15
2022-12-08T10:42:15.836Z,23.25
2022-12-08T10:44:55.727Z,23.33
2022-12-08T10:47:25.103Z,23.33
2022-12-08T10:50:09.804Z,23.22
2022-12-08T10:52:41.247Z,23.26
2022-12-08T10:55:20.772Z,23.36
2022-12-08T10:57:50.975Z,23.47
2022-12-08T11:00:21.539Z,23.57
2022-12-08T11:02:57.898Z,23.65
2022-12-08T11:05:36.894Z,23.69
2022-12-08T11:08:05.588Z,23.74
2022-12-08T11:10:44.670Z,23.75
2022-12-08T11:13:27.039Z,23.67
2022-12-08T11:15:55.588Z,23.65
2022-12-08T11:18:30.210Z,23.58
2022-12-08T11:21:07.548Z,23.60
2022-12-08T11:23:37.294Z,23.61
2022-12-08T11:26:20.932Z,23.56
2022-12-08T11:28:48.151Z,23.61
2022-12-08T11:31:23.318Z,23.70
2022-12-08T11:33:53.226Z,23.68
2022-12-08T11:36:23.057Z,23.60
2022-12-08T11:38:55.678Z,23.52
2022-12-08T11:41:27.600Z,23.48
2022-12-08T11:44:22.661Z,23.39
2022-12-08T11:46:57.183Z,23.28
2022-12-08T11:49:32.047Z,23.26
2022-12-08T11:52:26.683Z,23.30
2022-12-08T11:55:05.850Z,23.38
2022-12-08T11:57:33.122Z,23.39
2022-12-08T12:00:04.426Z,23.42
2022-12-08T12:02:35.461Z,23.42
2022-12-08T12:05:11.770Z,23.53
2022-12-08T12:07:52.055Z,23.60
2022-12-08T12:10:55.835Z,23.62
2022-12-08T12:13:41.466Z,23.70
2022-12-08T12:16:30.392Z,23.72
2022-12-08T12:19:03.995Z,23.73
2022-12-08T12:21:43.300Z,23.74
2022-12-08T12:24:22.330Z,23.76
2022-12-08T12:26:55.825Z,23.76
2022-12-08T12:29:25.969Z,23.81
2022-12-08T12:31:58.670Z,23.71
2022-12-08T12:34:46.974Z,23.66
2022-12-08T12:37:36.024Z,23.60
2022-12-08T12:40:07.892Z,23.49
2022-12-08T12:42:40.659Z,23.37
2022-12-08T12:45:16.578Z,23.35
2022-12-08T12:47:56.957Z,23.38
2022-12-08T12:50:39.119Z,23.42
2022-12-08T12:53:20.957Z,23.45
2022-12-08T12:55:57.293Z,23.49
2022-12-08T12:58:30.289Z,23.50
2022-12-08T13:01:12.958Z,23.62
2022-12-08T13:03:50.423Z,23.67
2022-12-08T13:06:32.618Z,23.58
2022-12-08T13:09:00.609Z,23.66
2022-12-08T13:11:27.811Z,23.81
2022-12-08T13:14:05.814Z,23.93
2022-12-08T13:16:35.407Z,23.90
2022-12-08T13:19:08.418Z,23.93
2022-12-08T13:21:38.391Z,23.97
2022-12-08T13:24:14.221Z,23.95
2022-12-08T13:26:49.864Z,23.93
2022-12-08T13:29:25.837Z,24.01
2022-12-08T13:31:54.561Z,24.09
2022-12-08T13:34:48.837Z,24.12
2022-12-08T13:37:50.707Z,24.09
2022-12-08T13:40:30.565Z,24.07
2022-12-08T13:43:12.324Z,24.10
2022-12-08T13:46:31.963Z,24.14
2022-12-08T13:55:26.823Z,24.13
2022-12-08T13:57:36.155Z,24.13
2022-12-08T14:00:05.988Z,24.22
2022-12-08T14:02:43.757Z,24.27
2022-12-08T14:05:34.894Z,24.47
2022-12-08T14:08:01.871Z,24.61
2022-12-08T14:10:32.340Z,24.67
2022-12-08T14:13:06.451Z,24.71
2022-12-08T14:15:37.596Z,24.71
2022-12-08T14:18:07.103Z,24.74
2022-12-08T14:20:57.983Z,24.73
2022-12-08T14:23:22.629Z,24.75
2022-12-08T14:25:49.869Z,24.67
2022-12-08T14:28:17.420Z,24.69
2022-12-08T14:30:44.817Z,24.74
2022-12-08T14:33:15.366Z,24.80
2022-12-08T14:35:42.505Z,24.95
2022-12-08T14:38:16.500Z,25.05
2022-12-08T14:40:45.962Z,25.01
2022-12-08T14:43:19.446Z,24.88
2022-12-08T14:45:47.183Z,24.83
2022-12-08T14:48:33.803Z,24.77
2022-12-08T14:51:06.702Z,24.80
2022-12-08T14:53:47.830Z,24.75
2022-12-08T14:56:23.159Z,24.72
2022-12-08T14:59:03.259Z,24.50
2022-12-08T15:01:30.971Z,24.47
2022-12-08T15:04:18.204Z,24.46
2022-12-08T15:06:56.793Z,24.37
2022-12-08T15:09:41.573Z,24.36
2022-12-08T15:12:14.409Z,24.53
2022-12-08T15:15:23.858Z,24.47
2022-12-08T15:18:02.728Z,24.37
2022-12-08T15:20:47.173Z,24.37
2022-12-08T15:23:26.268Z,24.40
2022-12-08T15:25:55.254Z,24.33
2022-12-08T15:28:29.773Z,24.23
2022-12-08T15:30:58.656Z,24.17
2022-12-08T15:33:26.146Z,24.00
2022-12-08T15:35:53.480Z,23.87
2022-12-08T15:38:27.019Z,23.82
2022-12-08T15:40:55.179Z,23.85
2022-12-08T15:43:23.100Z,23.86
2022-12-08T15:45:59.004Z,23.93
2022-12-08T15:48:29.874Z,23.95
2022-12-08T15:50:57.536Z,23.90
2022-12-08T15:53:24.590Z,23.90
2022-12-08T15:58:56.032Z,23.70
2022-12-08T16:01:24.223Z,23.36
2022-12-08T16:09:39.716Z,22.96
2022-12-08T16:13:06.926Z,22.96
2022-12-08T16:15:50.026Z,23.04
2022-12-08T16:18:13.857Z,22.94
2022-12-08T16:23:42.402Z,22.86
2022-12-08T16:27:22.128Z,22.88
2022-12-08T16:29:20.485Z,22.94
2022-12-08T16:31:48.037Z,22.96
2022-12-08T16:34:15.111Z,22.95
2022-12-08T16:36:42.263Z,22.91
2022-12-08T16:39:12.827Z,22.88
2022-12-08T16:41:58.248Z,22.82
2022-12-08T16:44:25.286Z,22.79
2022-12-08T16:46:52.338Z,22.78
2022-12-08T16:49:19.377Z,22.76
2022-12-08T16:51:46.603Z,22.78
2022-12-08T16:54:13.710Z,22.81
2022-12-08T16:56:41.110Z,22.81
2022-12-08T16:59:08.179Z,22.89
2022-12-08T17:01:36.172Z,22.91
2022-12-08T17:06:53.160Z,22.99
2022-12-08T17:09:20.292Z,22.95
2022-12-08T17:11:47.411Z,22.92
2022-12-08T17:14:15.533Z,22.90
2022-12-08T17:16:43.744Z,22.84
2022-12-08T17:19:13.718Z,22.74
2022-12-08T17:21:40.877Z,22.68
2022-12-08T17:24:08.050Z,22.60
2022-12-08T17:26:35.760Z,22.56
2022-12-08T17:29:03.792Z,22.55
2022-12-08T17:31:32.639Z,22.53
2022-12-08T17:34:04.598Z,22.59
2022-12-08T17:36:32.124Z,22.61
2022-12-08T17:39:00.816Z,22.59
2022-12-08T17:41:29.195Z,22.58
2022-12-08T17:43:56.589Z,22.52
2022-12-08T17:46:24.011Z,22.49
2022-12-08T17:48:51.577Z,22.43
2022-12-08T17:51:18.861Z,22.43
2022-12-08T17:53:46.199Z,22.44
2022-12-08T17:56:18.951Z,22.43
2022-12-08T17:58:49.881Z,22.39
2022-12-08T18:01:21.338Z,22.39
2022-12-08T18:03:48.473Z,22.41
2022-12-08T18:06:17.770Z,22.38
2022-12-08T18:08:45.404Z,22.33
2022-12-08T18:11:15.159Z,22.22
2022-12-08T18:13:42.197Z,22.12
2022-12-08T18:16:09.425Z,22.10
2022-12-08T18:18:36.493Z,22.08
2022-12-08T18:21:03.859Z,22.12
2022-12-08T18:23:31.042Z,22.17
2022-12-08T18:25:58.099Z,22.20
2022-12-08T18:28:25.183Z,22.23
2022-12-08T18:30:52.318Z,22.28
2022-12-08T18:33:19.372Z,22.32
2022-12-08T18:35:46.517Z,22.38
2022-12-08T18:38:13.521Z,22.42
2022-12-08T18:40:40.617Z,22.44
2022-12-08T18:43:07.691Z,22.48
2022-12-08T18:45:37.063Z,22.50
2022-12-08T18:48:04.332Z,22.45
2022-12-08T18:50:31.424Z,22.42
2022-12-08T18:52:58.527Z,22.43
2022-12-08T18:55:25.564Z,22.45
2022-12-08T18:57:52.774Z,22.48
2022-12-08T19:00:20.502Z,22.48
2022-12-08T19:02:47.777Z,22.44
2022-12-08T19:05:15.474Z,22.43
2022-12-08T19:07:43.161Z,22.37
2022-12-08T19:10:10.869Z,22.39
2022-12-08T19:12:38.022Z,22.40
2022-12-08T19:15:06.134Z,22.41
2022-12-08T19:17:33.441Z,22.42
2022-12-08T19:20:00.572Z,22.45
2022-12-08T19:22:27.686Z,22.45
2022-12-08T19:24:54.819Z,22.44
2022-12-08T19:27:21.927Z,22.42
2022-12-08T19:29:49.037Z,22.41
2022-12-08T19:32:16.053Z,22.38
2022-12-08T19:34:43.332Z,22.32
2022-12-08T19:37:12.887Z,22.25
2022-12-08T19:39:59.182Z,22.20
2022-12-08T19:42:44.807Z,22.19
2022-12-08T19:45:16.065Z,22.17
2022-12-08T19:47:43.677Z,22.13
2022-12-08T19:50:31.722Z,22.10
2022-12-08T19:52:59.092Z,22.08
2022-12-08T19:55:26.774Z,22.06
2022-12-08T19:57:54.615Z,22.00
2022-12-08T20:00:21.959Z,21.98
2022-12-08T20:02:50.624Z,21.93
2022-12-08T20:05:17.977Z,21.90
2022-12-08T20:07:45.284Z,21.94
2022-12-08T20:10:19.887Z,22.02
2022-12-08T20:12:46.917Z,22.10
2022-12-08T20:15:15.384Z,22.14
2022-12-08T20:17:43.631Z,22.15
2022-12-08T20:20:12.856Z,22.18
2022-12-08T20:22:40.656Z,22.21
2022-12-08T20:25:12.776Z,22.24
2022-12-08T20:27:40.448Z,22.26
2022-12-08T20:30:13.376Z,22.14
2022-12-08T20:32:43.859Z,22.05
2022-12-08T20:35:11.009Z,22.02
2022-12-08T20:37:38.126Z,21.98
2022-12-08T20:40:06.567Z,21.99
2022-12-08T20:42:33.548Z,21.96
2022-12-08T20:45:00.693Z,21.91
2022-12-08T20:47:27.847Z,21.92
2022-12-08T20:49:55.122Z,21.89
2022-12-08T20:52:22.252Z,21.86
2022-12-08T20:54:49.379Z,21.88
2022-12-08T20:57:16.644Z,21.89
2022-12-08T20:59:44.126Z,21.89
2022-12-08T21:02:11.680Z,21.93
2022-12-08T21:04:38.924Z,21.95
2022-12-08T21:07:06.186Z,21.97
2022-12-08T21:09:33.443Z,21.99
2022-12-08T21:12:00.807Z,21.99
2022-12-08T21:14:27.951Z,21.99
2022-12-08T21:16:55.685Z,22.01
2022-12-08T21:19:23.018Z,22.01
2022-12-08T21:21:51.250Z,22.01
2022-12-08T21:24:19.312Z,21.99
2022-12-08T21:26:46.509Z,22.03
2022-12-08T21:29:13.735Z,22.06
2022-12-08T21:31:41.204Z,22.07
2022-12-08T21:34:08.363Z,22.11
2022-12-08T21:36:35.404Z,22.09
2022-12-08T21:39:03.051Z,22.04
2022-12-08T21:41:48.986Z,22.00
2022-12-08T21:44:19.788Z,21.96
2022-12-08T21:46:46.960Z,21.95
2022-12-08T21:49:14.232Z,21.96
2022-12-08T21:51:43.201Z,21.95
2022-12-08T21:54:18.317Z,21.92
2022-12-08T21:56:46.687Z,21.84
2022-12-08T21:59:13.863Z,21.88
2022-12-08T22:01:43.773Z,21.89
2022-12-08T22:04:12.726Z,21.91
2022-12-08T22:06:39.982Z,21.91
2022-12-08T22:09:07.445Z,21.93
2022-12-08T22:11:34.739Z,21.99
2022-12-08T22:14:01.972Z,22.00
2022-12-08T22:16:29.130Z,22.02
2022-12-08T22:18:56.956Z,22.01
2022-12-08T22:21:24.174Z,22.05
2022-12-08T22:23:51.383Z,22.01
2022-12-08T22:26:18.939Z,22.02
2022-12-08T22:28:46.157Z,22.01
2022-12-08T22:31:19.978Z,22.02
2022-12-08T22:33:47.723Z,21.97
2022-12-08T22:36:18.164Z,21.93
2022-12-08T22:38:45.876Z,21.93
2022-12-08T22:41:13.611Z,21.90
2022-12-08T22:43:41.461Z,21.86
2022-12-08T22:46:27.914Z,21.81
2022-12-08T22:48:55.333Z,21.80
2022-12-08T22:51:23.779Z,21.79
2022-12-08T22:53:51.031Z,21.77
2022-12-08T22:56:19.643Z,21.81
2022-12-08T22:58:46.899Z,21.80
2022-12-08T23:01:31.413Z,21.78
2022-12-08T23:04:00.144Z,21.78
2022-12-08T23:06:29.026Z,21.77
2022-12-08T23:08:57.258Z,21.78
2022-12-08T23:11:27.683Z,21.76
2022-12-08T23:13:56.476Z,21.75
2022-12-08T23:16:23.917Z,21.77
2022-12-08T23:18:51.087Z,21.72
2022-12-08T23:21:19.880Z,21.65
2022-12-08T23:23:47.646Z,21.64
2022-12-08T23:26:27.431Z,21.63
2022-12-08T23:28:55.965Z,21.61
2022-12-08T23:31:23.638Z,21.61
2022-12-08T23:33:51.557Z,21.62
2022-12-08T23:36:20.445Z,21.59
2022-12-08T23:38:48.015Z,21.59
2022-12-08T23:41:16.579Z,21.63
2022-12-08T23:43:49.350Z,21.67
2022-12-08T23:46:17.948Z,21.70
2022-12-08T23:48:45.146Z,21.65
2022-12-08T23:51:13.155Z,21.63
2022-12-08T23:53:41.171Z,21.67
2022-12-08T23:56:11.306Z,21.66
2022-12-08T23:58:38.709Z,21.63
